createdAt,value
2023-03-06T00:02:07.902Z,52.80
2023-03-06T00:07:09.414Z,52.78
2023-03-06T00:12:10.897Z,52.74
2023-03-06T00:17:12.438Z,53.28
2023-03-06T00:22:14.893Z,52.48
2023-03-06T00:27:16.353Z,52.48
2023-03-06T00:32:17.849Z,51.31
2023-03-06T00:37:19.709Z,47.80
2023-03-06T00:42:21.180Z,45.05
2023-03-06T00:47:22.634Z,45.29
2023-03-06T00:52:24.090Z,44.00
2023-03-06T00:57:25.623Z,44.04
2023-03-06T01:02:27.170Z,43.52
2023-03-06T01:07:28.678Z,42.23
2023-03-06T01:12:30.170Z,41.40
2023-03-06T01:17:31.623Z,41.40
2023-03-06T01:22:33.111Z,39.86
2023-03-06T01:27:34.554Z,41.06
2023-03-06T01:32:36.010Z,41.19
2023-03-06T01:37:37.556Z,41.04
2023-03-06T01:42:39.061Z,41.48
2023-03-06T01:47:40.565Z,41.54
2023-03-06T01:52:50.827Z,40.87
2023-03-06T01:57:53.559Z,41.32
2023-03-06T02:03:21.962Z,41.47
2023-03-06T02:08:23.681Z,41.55
2023-03-06T02:13:25.158Z,42.01
2023-03-06T02:18:26.627Z,42.96
2023-03-06T02:23:45.929Z,43.72
2023-03-06T02:28:47.407Z,43.03
2023-03-06T02:34:20.210Z,43.21
2023-03-06T02:39:24.011Z,43.39
2023-03-06T02:44:25.493Z,43.65
2023-03-06T02:49:26.941Z,44.41
2023-03-06T02:54:28.406Z,45.05
2023-03-06T02:59:29.872Z,44.67
2023-03-06T03:04:31.403Z,44.24
2023-03-06T03:09:36.848Z,43.84
2023-03-06T03:14:38.377Z,43.52
2023-03-06T03:19:39.838Z,43.11
2023-03-06T03:24:42.406Z,43.61
2023-03-06T03:29:43.912Z,43.40
2023-03-06T03:34:45.389Z,42.82
2023-03-06T03:39:46.898Z,42.80
2023-03-06T03:44:48.374Z,43.83
2023-03-06T03:49:49.850Z,43.80
2023-03-06T03:54:51.331Z,44.26
2023-03-06T03:59:52.798Z,44.28
2023-03-06T04:04:54.324Z,44.36
2023-03-06T04:09:55.783Z,44.25
2023-03-06T04:14:57.270Z,45.25
2023-03-06T04:19:58.750Z,45.33
2023-03-06T04:25:00.227Z,45.03
2023-03-06T04:30:02.749Z,44.79
2023-03-06T04:35:04.373Z,45.85
2023-03-06T04:40:06.226Z,45.49
2023-03-06T04:45:08.569Z,45.39
2023-03-06T04:50:10.550Z,44.46
2023-03-06T04:55:13.229Z,43.28
2023-03-06T05:00:19.232Z,42.77
2023-03-06T05:05:20.734Z,43.60
2023-03-06T05:10:22.471Z,43.18
2023-03-06T05:15:23.969Z,42.39
2023-03-06T05:20:25.470Z,43.74
2023-03-06T05:25:26.964Z,44.60
2023-03-06T05:30:28.432Z,44.39
2023-03-06T05:35:29.969Z,44.74
2023-03-06T05:40:31.737Z,44.48
2023-03-06T05:45:33.270Z,43.06
2023-03-06T05:50:34.899Z,43.46
2023-03-06T05:55:36.383Z,43.16
2023-03-06T06:00:37.842Z,44.12
2023-03-06T06:05:39.788Z,43.60
2023-03-06T06:10:41.415Z,43.65
2023-03-06T06:15:42.897Z,43.69
2023-03-06T06:20:44.366Z,45.11
2023-03-06T06:25:45.847Z,45.04
2023-03-06T06:30:47.366Z,44.86
2023-03-06T06:35:48.927Z,44.57
2023-03-06T06:41:19.306Z,44.31
2023-03-06T06:46:39.936Z,44.48
2023-03-06T06:51:33.657Z,44.83
2023-03-06T06:56:35.195Z,44.63
2023-03-06T07:01:36.737Z,45.73
2023-03-06T07:06:38.248Z,45.47
2023-03-06T07:11:40.013Z,45.34
2023-03-06T07:16:41.497Z,46.04
2023-03-06T07:21:42.984Z,45.47
2023-03-06T07:26:47.886Z,44.10
2023-03-06T07:31:49.334Z,43.53
2023-03-06T07:36:50.919Z,44.27
2023-03-06T07:41:53.448Z,44.62
2023-03-06T07:46:55.060Z,45.33
2023-03-06T07:51:56.587Z,45.56
2023-03-06T07:56:58.320Z,46.63
2023-03-06T08:01:59.805Z,46.35
2023-03-06T08:07:01.275Z,46.21
2023-03-06T08:12:02.754Z,45.59
2023-03-06T08:17:04.302Z,45.24
2023-03-06T08:22:06.215Z,44.24
2023-03-06T08:27:07.684Z,44.89
2023-03-06T08:32:11.549Z,44.21
2023-03-06T08:37:13.026Z,44.48
2023-03-06T08:42:15.847Z,44.66
2023-03-06T08:47:17.389Z,44.51
2023-03-06T08:52:19.816Z,44.76
2023-03-06T08:57:21.287Z,45.21
2023-03-06T09:02:22.757Z,47.35
2023-03-06T09:07:24.291Z,48.40
2023-03-06T09:12:25.830Z,47.87
2023-03-06T09:17:27.434Z,47.67
2023-03-06T09:22:28.898Z,47.68
2023-03-06T09:27:30.398Z,47.44
2023-03-06T09:32:31.960Z,46.53
2023-03-06T09:37:33.493Z,46.65
2023-03-06T09:42:36.114Z,46.10
2023-03-06T09:47:48.188Z,46.95
2023-03-06T09:53:08.661Z,46.33
2023-03-06T09:58:18.206Z,45.33
2023-03-06T10:03:38.070Z,44.95
2023-03-06T10:08:51.366Z,44.36
2023-03-06T10:14:09.886Z,42.79
2023-03-06T10:19:15.875Z,42.99
2023-03-06T10:24:25.241Z,42.92
2023-03-06T10:29:34.875Z,43.19
2023-03-06T10:34:37.978Z,42.11
2023-03-06T10:39:39.434Z,42.03
2023-03-06T10:44:40.908Z,41.29
2023-03-06T10:49:42.395Z,41.25
2023-03-06T10:54:44.056Z,41.48
2023-03-06T10:59:58.675Z,41.13
2023-03-06T11:05:00.696Z,41.61
2023-03-06T11:10:03.886Z,39.71
2023-03-06T11:15:14.307Z,37.60
2023-03-06T11:20:24.477Z,37.66
2023-03-06T11:25:41.360Z,38.57
2023-03-06T11:30:47.405Z,36.28
2023-03-06T11:36:00.060Z,37.86
2023-03-06T11:41:02.688Z,37.76
2023-03-06T11:46:11.936Z,37.38
2023-03-06T11:51:22.828Z,36.80
2023-03-06T11:56:31.870Z,36.28
2023-03-06T12:01:47.555Z,35.16
2023-03-06T12:07:10.513Z,35.47
2023-03-06T12:12:27.635Z,36.38
2023-03-06T12:17:53.939Z,35.22
2023-03-06T12:23:14.925Z,35.78
2023-03-06T12:28:31.908Z,35.31
2023-03-06T12:33:54.926Z,35.23
2023-03-06T12:39:02.153Z,38.13
2023-03-06T12:44:31.356Z,36.55
2023-03-06T12:49:38.756Z,35.54
2023-03-06T12:54:40.828Z,36.74
2023-03-06T12:59:47.859Z,35.61
2023-03-06T13:04:56.778Z,35.83
2023-03-06T13:10:23.250Z,36.29
2023-03-06T13:15:33.579Z,36.55
2023-03-06T13:20:43.542Z,36.13
2023-03-06T13:25:49.141Z,35.82
2023-03-06T13:30:52.675Z,37.91
2023-03-06T13:36:13.819Z,37.85
2023-03-06T13:41:24.745Z,37.72
2023-03-06T13:46:31.274Z,38.50
2023-03-06T13:51:37.288Z,37.99
2023-03-06T13:57:06.344Z,37.50
2023-03-06T14:02:25.963Z,38.02
2023-03-06T14:07:27.340Z,36.30
2023-03-06T14:12:31.608Z,34.93
2023-03-06T14:17:34.551Z,35.93
2023-03-06T14:22:36.105Z,37.06
2023-03-06T14:27:51.546Z,37.37
2023-03-06T14:32:54.074Z,36.34
2023-03-06T14:37:58.000Z,36.36
2023-03-06T14:43:21.959Z,35.34
2023-03-06T14:48:24.793Z,36.57
2023-03-06T14:53:30.433Z,36.51
2023-03-06T14:58:33.483Z,35.49
2023-03-06T15:03:51.250Z,35.22
2023-03-06T15:09:17.356Z,36.23
2023-03-06T15:14:19.993Z,35.84
2023-03-06T15:19:21.677Z,38.09
2023-03-06T15:24:32.314Z,38.82
2023-03-06T15:29:33.837Z,38.41
2023-03-06T15:34:35.302Z,38.54
2023-03-06T15:39:40.674Z,39.65
2023-03-06T15:44:42.290Z,39.00
2023-03-06T15:49:43.773Z,39.33
2023-03-06T15:54:45.270Z,37.45
2023-03-06T15:59:46.754Z,37.04
2023-03-06T16:04:48.350Z,37.83
2023-03-06T16:09:49.874Z,34.95
2023-03-06T16:14:51.334Z,36.44
2023-03-06T16:19:52.987Z,35.87
2023-03-06T16:24:54.442Z,37.08
2023-03-06T16:29:55.909Z,36.52
2023-03-06T16:34:57.367Z,37.45
2023-03-06T16:39:58.820Z,40.02
2023-03-06T16:45:00.291Z,39.64
2023-03-06T16:50:02.315Z,40.90
2023-03-06T16:55:04.312Z,40.99
2023-03-06T17:00:06.584Z,41.90
2023-03-06T17:05:08.634Z,41.60
2023-03-06T17:10:12.427Z,42.21
2023-03-06T17:15:13.991Z,41.92
2023-03-06T17:20:15.621Z,43.29
2023-03-06T17:25:17.098Z,44.07
2023-03-06T17:30:18.810Z,44.35
2023-03-06T17:35:20.316Z,44.52
2023-03-06T17:40:21.811Z,43.57
2023-03-06T17:45:23.262Z,43.95
2023-03-06T17:50:24.741Z,44.22
2023-03-06T17:55:27.182Z,44.93
2023-03-06T18:00:28.645Z,45.80
2023-03-06T18:05:30.174Z,45.63
2023-03-06T18:10:31.935Z,45.08
2023-03-06T18:15:33.409Z,46.66
2023-03-06T18:20:39.888Z,46.35
2023-03-06T18:25:41.441Z,48.92
2023-03-06T18:30:42.956Z,46.72
2023-03-06T18:35:44.707Z,47.61
2023-03-06T18:40:46.303Z,47.20
2023-03-06T18:45:57.012Z,46.46
2023-03-06T18:51:09.316Z,46.70
2023-03-06T18:56:16.158Z,47.14
2023-03-06T19:01:17.798Z,46.41
2023-03-06T19:06:20.211Z,45.88
2023-03-06T19:11:21.686Z,47.15
2023-03-06T19:16:25.126Z,46.75
2023-03-06T19:21:27.090Z,49.52
2023-03-06T19:26:28.665Z,49.89
2023-03-06T19:31:30.359Z,52.33
2023-03-06T19:36:34.098Z,53.15
2023-03-06T19:41:35.576Z,53.75
2023-03-06T19:46:37.597Z,53.38
2023-03-06T19:51:39.152Z,53.86
2023-03-06T19:56:40.671Z,54.76
2023-03-06T20:01:42.206Z,54.65
2023-03-06T20:06:46.554Z,55.82
2023-03-06T20:11:48.048Z,56.16
2023-03-06T20:16:49.548Z,58.39
2023-03-06T20:21:51.064Z,61.39
2023-03-06T20:26:57.271Z,59.96
2023-03-06T20:31:58.745Z,61.37
2023-03-06T20:37:00.249Z,61.60
2023-03-06T20:42:01.762Z,61.82
2023-03-06T20:47:03.267Z,62.81
2023-03-06T20:52:04.806Z,62.43
2023-03-06T20:57:06.267Z,62.98
2023-03-06T21:02:09.651Z,61.92
2023-03-06T21:07:11.167Z,61.06
2023-03-06T21:12:12.644Z,60.91
2023-03-06T21:17:14.117Z,62.21
2023-03-06T21:22:15.598Z,61.52
2023-03-06T21:27:17.063Z,60.72
2023-03-06T21:32:18.576Z,61.26
2023-03-06T21:37:20.066Z,60.29
2023-03-06T21:42:21.561Z,60.31
2023-03-06T21:47:23.047Z,59.45
2023-03-06T21:52:26.469Z,59.14
2023-03-06T21:57:28.027Z,59.14
2023-03-06T22:02:29.480Z,59.11
2023-03-06T22:07:31.074Z,58.88
2023-03-06T22:12:35.933Z,59.61
2023-03-06T22:17:37.419Z,58.97
2023-03-06T22:22:38.897Z,59.75
2023-03-06T22:27:40.429Z,59.70
2023-03-06T22:32:41.907Z,59.56
2023-03-06T22:37:43.938Z,60.42
2023-03-06T22:42:45.401Z,60.06
2023-03-06T22:47:46.873Z,61.83
2023-03-06T22:52:48.427Z,61.35
2023-03-06T22:57:49.882Z,60.80
2023-03-06T23:02:51.406Z,59.56
2023-03-06T23:07:52.874Z,61.08
2023-03-06T23:12:54.359Z,61.67
2023-03-06T23:17:55.821Z,60.28
2023-03-06T23:22:57.310Z,59.93
2023-03-06T23:27:58.770Z,60.24
2023-03-06T23:33:00.261Z,59.91
2023-03-06T23:38:02.464Z,60.52
2023-03-06T23:43:03.930Z,60.39
2023-03-06T23:48:07.276Z,60.50
2023-03-06T23:53:08.772Z,61.63
2023-03-06T23:58:10.267Z,61.01
